Terminal Aerodrome Forecast
Issued by NWS Twin Cities, MN

Home | Current Version | Previous Version | Text Only | Print | Product List | Glossary Off
Versions: 1 2 3 4 5 6 7 8 9 10 11 12 13 14 15 16

443
FTUS43 KMPX 302337
TAFSTC
TAF
KSTC 302337Z 0100/0124 33008KT P6SM -RA SCT008 OVC015
     FM010200 33008KT 5SM -SN BR OVC008
     FM011200 32007KT P6SM OVC010
     FM011800 31008KT P6SM OVC018=

USA.gov is the U.S. government's official web portal to all federal, state and local government web resources and services.